sensor_id;sensor_type;location;lat;lon;timestamp;temperature;humidity
15872;DHT22;8035;51.962;7.162;2023-07-13T00:00:26;16.10;99.90
15872;DHT22;8035;51.962;7.162;2023-07-13T00:02:52;16.00;99.90
15872;DHT22;8035;51.962;7.162;2023-07-13T00:05:21;16.00;99.90
15872;DHT22;8035;51.962;7.162;2023-07-13T00:07:48;16.00;99.90
15872;DHT22;8035;51.962;7.162;2023-07-13T00:10:14;15.90;99.90
15872;DHT22;8035;51.962;7.162;2023-07-13T00:12:40;15.90;99.90
15872;DHT22;8035;51.962;7.162;2023-07-13T00:15:16;15.90;99.90
15872;DHT22;8035;51.962;7.162;2023-07-13T00:17:42;15.90;99.90
15872;DHT22;8035;51.962;7.162;2023-07-13T00:20:10;15.90;99.90
15872;DHT22;8035;51.962;7.162;2023-07-13T00:22:36;15.80;99.90
15872;DHT22;8035;51.962;7.162;2023-07-13T00:25:02;15.80;99.90
15872;DHT22;8035;51.962;7.162;2023-07-13T00:27:27;15.80;99.90
15872;DHT22;8035;51.962;7.162;2023-07-13T00:29:55;15.80;99.90
15872;DHT22;8035;51.962;7.162;2023-07-13T00:32:20;15.80;99.90
15872;DHT22;8035;51.962;7.162;2023-07-13T00:34:46;15.80;99.90
15872;DHT22;8035;51.962;7.162;2023-07-13T00:37:12;15.70;99.90
15872;DHT22;8035;51.962;7.162;2023-07-13T00:39:38;15.70;99.90
15872;DHT22;8035;51.962;7.162;2023-07-13T00:42:04;15.60;99.90
15872;DHT22;8035;51.962;7.162;2023-07-13T00:44:30;15.50;99.90
15872;DHT22;8035;51.962;7.162;2023-07-13T00:46:56;15.60;99.90
15872;DHT22;8035;51.962;7.162;2023-07-13T00:49:25;15.50;99.90
15872;DHT22;8035;51.962;7.162;2023-07-13T00:52:02;15.50;99.90
15872;DHT22;8035;51.962;7.162;2023-07-13T00:54:31;15.50;99.90
15872;DHT22;8035;51.962;7.162;2023-07-13T00:57:05;15.50;99.90
15872;DHT22;8035;51.962;7.162;2023-07-13T00:59:32;15.50;99.90
15872;DHT22;8035;51.962;7.162;2023-07-13T01:01:58;15.50;99.90
15872;DHT22;8035;51.962;7.162;2023-07-13T01:04:25;15.50;99.90
15872;DHT22;8035;51.962;7.162;2023-07-13T01:06:51;15.50;99.90
15872;DHT22;8035;51.962;7.162;2023-07-13T01:09:16;15.50;99.90
15872;DHT22;8035;51.962;7.162;2023-07-13T01:11:43;15.50;99.90
15872;DHT22;8035;51.962;7.162;2023-07-13T01:14:10;15.50;99.90
15872;DHT22;8035;51.962;7.162;2023-07-13T01:16:37;15.50;99.90
15872;DHT22;8035;51.962;7.162;2023-07-13T01:21:52;15.50;99.90
15872;DHT22;8035;51.962;7.162;2023-07-13T01:24:18;15.40;99.90
15872;DHT22;8035;51.962;7.162;2023-07-13T01:26:43;15.40;99.90
15872;DHT22;8035;51.962;7.162;2023-07-13T01:29:09;15.40;99.90
15872;DHT22;8035;51.962;7.162;2023-07-13T01:31:34;15.40;99.90
15872;DHT22;8035;51.962;7.162;2023-07-13T01:34:00;15.40;99.90
15872;DHT22;8035;51.962;7.162;2023-07-13T01:36:26;15.40;99.90
15872;DHT22;8035;51.962;7.162;2023-07-13T01:38:51;15.40;99.90
15872;DHT22;8035;51.962;7.162;2023-07-13T01:41:17;15.40;99.90
15872;DHT22;8035;51.962;7.162;2023-07-13T01:43:42;15.40;99.90
15872;DHT22;8035;51.962;7.162;2023-07-13T01:46:08;15.40;99.90
15872;DHT22;8035;51.962;7.162;2023-07-13T01:48:34;15.30;99.90
15872;DHT22;8035;51.962;7.162;2023-07-13T01:50:59;15.30;99.90
15872;DHT22;8035;51.962;7.162;2023-07-13T01:53:25;15.30;99.90
15872;DHT22;8035;51.962;7.162;2023-07-13T01:55:50;15.30;99.90
15872;DHT22;8035;51.962;7.162;2023-07-13T01:58:16;15.30;99.90
15872;DHT22;8035;51.962;7.162;2023-07-13T02:00:41;15.30;99.90
15872;DHT22;8035;51.962;7.162;2023-07-13T02:03:07;15.30;99.90
15872;DHT22;8035;51.962;7.162;2023-07-13T02:05:32;15.30;99.90
15872;DHT22;8035;51.962;7.162;2023-07-13T02:07:58;15.30;99.90
15872;DHT22;8035;51.962;7.162;2023-07-13T02:10:24;15.30;99.90
15872;DHT22;8035;51.962;7.162;2023-07-13T02:12:50;15.20;99.90
15872;DHT22;8035;51.962;7.162;2023-07-13T02:15:16;15.20;99.90
15872;DHT22;8035;51.962;7.162;2023-07-13T02:17:42;15.20;99.90
15872;DHT22;8035;51.962;7.162;2023-07-13T02:20:08;15.20;99.90
15872;DHT22;8035;51.962;7.162;2023-07-13T02:22:35;15.20;99.90
15872;DHT22;8035;51.962;7.162;2023-07-13T02:25:00;15.20;99.90
15872;DHT22;8035;51.962;7.162;2023-07-13T02:27:26;15.20;99.90
15872;DHT22;8035;51.962;7.162;2023-07-13T02:29:52;15.10;99.90
15872;DHT22;8035;51.962;7.162;2023-07-13T02:32:18;15.10;99.90
15872;DHT22;8035;51.962;7.162;2023-07-13T02:34:44;15.10;99.90
15872;DHT22;8035;51.962;7.162;2023-07-13T02:37:10;15.00;99.90
15872;DHT22;8035;51.962;7.162;2023-07-13T02:39:36;15.00;99.90
15872;DHT22;8035;51.962;7.162;2023-07-13T02:42:01;14.90;99.90
15872;DHT22;8035;51.962;7.162;2023-07-13T02:44:27;15.00;99.90
15872;DHT22;8035;51.962;7.162;2023-07-13T02:46:53;14.90;99.90
15872;DHT22;8035;51.962;7.162;2023-07-13T02:49:18;14.90;99.90
15872;DHT22;8035;51.962;7.162;2023-07-13T02:51:44;14.80;99.90
15872;DHT22;8035;51.962;7.162;2023-07-13T02:54:10;14.80;99.90
15872;DHT22;8035;51.962;7.162;2023-07-13T02:56:37;14.80;99.90
15872;DHT22;8035;51.962;7.162;2023-07-13T02:59:04;14.80;99.90
15872;DHT22;8035;51.962;7.162;2023-07-13T03:01:30;14.70;99.90
15872;DHT22;8035;51.962;7.162;2023-07-13T03:03:55;14.70;99.90
15872;DHT22;8035;51.962;7.162;2023-07-13T03:06:21;14.70;99.90
15872;DHT22;8035;51.962;7.162;2023-07-13T03:08:48;14.60;99.90
15872;DHT22;8035;51.962;7.162;2023-07-13T03:11:19;14.60;99.90
15872;DHT22;8035;51.962;7.162;2023-07-13T03:13:45;14.60;99.90
15872;DHT22;8035;51.962;7.162;2023-07-13T03:16:11;14.60;99.90
15872;DHT22;8035;51.962;7.162;2023-07-13T03:18:37;14.60;99.90
15872;DHT22;8035;51.962;7.162;2023-07-13T03:21:04;14.60;99.90
15872;DHT22;8035;51.962;7.162;2023-07-13T03:23:30;14.50;99.90
15872;DHT22;8035;51.962;7.162;2023-07-13T03:26:12;14.50;99.90
15872;DHT22;8035;51.962;7.162;2023-07-13T03:28:38;14.50;99.90
15872;DHT22;8035;51.962;7.162;2023-07-13T03:31:07;14.50;99.90
15872;DHT22;8035;51.962;7.162;2023-07-13T03:33:34;14.50;99.90
15872;DHT22;8035;51.962;7.162;2023-07-13T03:36:00;14.50;99.90
15872;DHT22;8035;51.962;7.162;2023-07-13T03:38:25;14.50;99.90
15872;DHT22;8035;51.962;7.162;2023-07-13T03:40:52;14.50;99.90
15872;DHT22;8035;51.962;7.162;2023-07-13T03:43:18;14.40;99.90
15872;DHT22;8035;51.962;7.162;2023-07-13T03:45:43;14.40;99.90
15872;DHT22;8035;51.962;7.162;2023-07-13T03:48:09;14.40;99.90
15872;DHT22;8035;51.962;7.162;2023-07-13T03:50:35;14.50;99.90
15872;DHT22;8035;51.962;7.162;2023-07-13T03:53:00;14.50;99.90
15872;DHT22;8035;51.962;7.162;2023-07-13T03:55:26;14.60;99.90
15872;DHT22;8035;51.962;7.162;2023-07-13T03:57:57;14.60;99.90
15872;DHT22;8035;51.962;7.162;2023-07-13T04:00:23;14.70;99.90
15872;DHT22;8035;51.962;7.162;2023-07-13T04:02:49;14.80;99.90
15872;DHT22;8035;51.962;7.162;2023-07-13T04:05:15;14.80;99.90
15872;DHT22;8035;51.962;7.162;2023-07-13T04:07:40;14.80;99.90
15872;DHT22;8035;51.962;7.162;2023-07-13T04:10:06;14.80;99.90
15872;DHT22;8035;51.962;7.162;2023-07-13T04:12:32;14.90;99.90
15872;DHT22;8035;51.962;7.162;2023-07-13T04:15:01;14.90;99.90
15872;DHT22;8035;51.962;7.162;2023-07-13T04:17:26;15.00;99.90
15872;DHT22;8035;51.962;7.162;2023-07-13T04:19:52;15.00;99.90
15872;DHT22;8035;51.962;7.162;2023-07-13T04:22:17;15.10;99.90
15872;DHT22;8035;51.962;7.162;2023-07-13T04:24:43;15.10;99.90
15872;DHT22;8035;51.962;7.162;2023-07-13T04:27:09;15.20;99.90
15872;DHT22;8035;51.962;7.162;2023-07-13T04:29:34;15.20;99.90
15872;DHT22;8035;51.962;7.162;2023-07-13T04:32:01;15.20;99.90
15872;DHT22;8035;51.962;7.162;2023-07-13T04:34:26;15.20;99.90
15872;DHT22;8035;51.962;7.162;2023-07-13T04:36:52;15.30;99.90
15872;DHT22;8035;51.962;7.162;2023-07-13T04:39:17;15.30;99.90
15872;DHT22;8035;51.962;7.162;2023-07-13T04:41:43;15.30;99.90
15872;DHT22;8035;51.962;7.162;2023-07-13T04:44:08;15.30;99.90
15872;DHT22;8035;51.962;7.162;2023-07-13T04:46:34;15.30;99.90
15872;DHT22;8035;51.962;7.162;2023-07-13T04:49:00;15.30;99.90
15872;DHT22;8035;51.962;7.162;2023-07-13T04:51:26;15.30;99.90
15872;DHT22;8035;51.962;7.162;2023-07-13T04:53:51;15.40;99.90
15872;DHT22;8035;51.962;7.162;2023-07-13T04:56:17;15.40;99.90
15872;DHT22;8035;51.962;7.162;2023-07-13T04:58:42;15.40;99.90
15872;DHT22;8035;51.962;7.162;2023-07-13T05:01:09;15.40;99.90
15872;DHT22;8035;51.962;7.162;2023-07-13T05:03:35;15.40;99.90
15872;DHT22;8035;51.962;7.162;2023-07-13T05:06:05;15.40;99.90
15872;DHT22;8035;51.962;7.162;2023-07-13T05:08:31;15.40;99.90
15872;DHT22;8035;51.962;7.162;2023-07-13T05:10:59;15.40;99.90
15872;DHT22;8035;51.962;7.162;2023-07-13T05:13:25;15.40;99.90
15872;DHT22;8035;51.962;7.162;2023-07-13T05:15:59;15.50;99.90
15872;DHT22;8035;51.962;7.162;2023-07-13T05:18:25;15.60;99.90
15872;DHT22;8035;51.962;7.162;2023-07-13T05:21:01;15.60;99.90
15872;DHT22;8035;51.962;7.162;2023-07-13T05:23:27;15.60;99.90
15872;DHT22;8035;51.962;7.162;2023-07-13T05:25:53;15.60;99.90
15872;DHT22;8035;51.962;7.162;2023-07-13T05:28:18;15.60;99.90
15872;DHT22;8035;51.962;7.162;2023-07-13T05:30:48;15.50;99.90
15872;DHT22;8035;51.962;7.162;2023-07-13T05:33:14;15.50;99.90
15872;DHT22;8035;51.962;7.162;2023-07-13T05:35:39;15.50;99.90
15872;DHT22;8035;51.962;7.162;2023-07-13T05:38:05;15.50;99.90
15872;DHT22;8035;51.962;7.162;2023-07-13T05:40:31;15.60;99.90
15872;DHT22;8035;51.962;7.162;2023-07-13T05:42:57;15.70;99.90
15872;DHT22;8035;51.962;7.162;2023-07-13T05:45:22;15.70;99.90
15872;DHT22;8035;51.962;7.162;2023-07-13T05:47:48;15.90;99.90
15872;DHT22;8035;51.962;7.162;2023-07-13T05:50:13;16.00;99.90
15872;DHT22;8035;51.962;7.162;2023-07-13T05:52:39;16.10;99.90
15872;DHT22;8035;51.962;7.162;2023-07-13T05:55:05;16.10;99.90
15872;DHT22;8035;51.962;7.162;2023-07-13T05:57:31;16.10;99.90
15872;DHT22;8035;51.962;7.162;2023-07-13T05:59:57;16.20;99.90
15872;DHT22;8035;51.962;7.162;2023-07-13T06:02:22;16.20;99.90
15872;DHT22;8035;51.962;7.162;2023-07-13T06:04:48;16.20;99.90
15872;DHT22;8035;51.962;7.162;2023-07-13T06:07:14;16.30;99.90
15872;DHT22;8035;51.962;7.162;2023-07-13T06:09:40;16.40;99.90
15872;DHT22;8035;51.962;7.162;2023-07-13T06:12:06;16.60;99.90
15872;DHT22;8035;51.962;7.162;2023-07-13T06:14:32;16.70;99.90
15872;DHT22;8035;51.962;7.162;2023-07-13T06:16:57;17.00;99.90
15872;DHT22;8035;51.962;7.162;2023-07-13T06:19:23;17.10;99.90
15872;DHT22;8035;51.962;7.162;2023-07-13T06:21:49;17.40;99.90
15872;DHT22;8035;51.962;7.162;2023-07-13T06:24:14;17.50;99.90
15872;DHT22;8035;51.962;7.162;2023-07-13T06:26:40;17.70;99.90
15872;DHT22;8035;51.962;7.162;2023-07-13T06:29:06;17.80;99.90
15872;DHT22;8035;51.962;7.162;2023-07-13T06:31:32;17.80;99.90
15872;DHT22;8035;51.962;7.162;2023-07-13T06:33:57;17.70;99.90
15872;DHT22;8035;51.962;7.162;2023-07-13T06:36:23;17.50;99.90
15872;DHT22;8035;51.962;7.162;2023-07-13T06:38:49;17.50;99.90
15872;DHT22;8035;51.962;7.162;2023-07-13T06:41:14;17.60;99.90
15872;DHT22;8035;51.962;7.162;2023-07-13T06:43:40;17.60;99.90
15872;DHT22;8035;51.962;7.162;2023-07-13T06:46:05;17.70;99.90
15872;DHT22;8035;51.962;7.162;2023-07-13T06:48:31;17.50;99.90
15872;DHT22;8035;51.962;7.162;2023-07-13T06:50:57;17.50;99.90
15872;DHT22;8035;51.962;7.162;2023-07-13T06:53:23;17.50;99.90
15872;DHT22;8035;51.962;7.162;2023-07-13T06:55:49;17.50;99.90
15872;DHT22;8035;51.962;7.162;2023-07-13T06:58:17;17.50;99.90
15872;DHT22;8035;51.962;7.162;2023-07-13T07:00:43;17.60;99.90
15872;DHT22;8035;51.962;7.162;2023-07-13T07:03:08;17.70;99.90
15872;DHT22;8035;51.962;7.162;2023-07-13T07:05:34;17.70;99.90
15872;DHT22;8035;51.962;7.162;2023-07-13T07:08:00;17.80;99.90
15872;DHT22;8035;51.962;7.162;2023-07-13T07:10:25;17.70;99.90
15872;DHT22;8035;51.962;7.162;2023-07-13T07:12:51;17.80;99.90
15872;DHT22;8035;51.962;7.162;2023-07-13T07:15:18;17.80;99.90
15872;DHT22;8035;51.962;7.162;2023-07-13T07:17:44;17.90;99.90
15872;DHT22;8035;51.962;7.162;2023-07-13T07:20:10;18.00;99.90
15872;DHT22;8035;51.962;7.162;2023-07-13T07:22:36;18.00;99.90
15872;DHT22;8035;51.962;7.162;2023-07-13T07:25:01;18.00;99.90
15872;DHT22;8035;51.962;7.162;2023-07-13T07:27:27;18.00;99.90
15872;DHT22;8035;51.962;7.162;2023-07-13T07:29:53;18.00;99.90
15872;DHT22;8035;51.962;7.162;2023-07-13T07:32:19;18.10;99.90
15872;DHT22;8035;51.962;7.162;2023-07-13T07:34:46;18.20;99.90
15872;DHT22;8035;51.962;7.162;2023-07-13T07:37:13;18.10;99.90
15872;DHT22;8035;51.962;7.162;2023-07-13T07:39:39;18.20;99.90
15872;DHT22;8035;51.962;7.162;2023-07-13T07:42:05;18.20;99.90
15872;DHT22;8035;51.962;7.162;2023-07-13T07:44:31;18.10;99.90
15872;DHT22;8035;51.962;7.162;2023-07-13T07:46:58;18.10;99.90
15872;DHT22;8035;51.962;7.162;2023-07-13T07:49:23;18.20;99.90
15872;DHT22;8035;51.962;7.162;2023-07-13T07:51:49;18.40;99.90
15872;DHT22;8035;51.962;7.162;2023-07-13T07:54:15;18.50;99.90
15872;DHT22;8035;51.962;7.162;2023-07-13T07:56:40;18.50;99.90
15872;DHT22;8035;51.962;7.162;2023-07-13T07:59:06;18.60;99.90
15872;DHT22;8035;51.962;7.162;2023-07-13T08:01:31;18.60;99.90
15872;DHT22;8035;51.962;7.162;2023-07-13T08:03:57;18.80;99.90
15872;DHT22;8035;51.962;7.162;2023-07-13T08:06:23;18.80;99.90
15872;DHT22;8035;51.962;7.162;2023-07-13T08:08:48;18.70;99.90
15872;DHT22;8035;51.962;7.162;2023-07-13T08:11:14;18.60;99.90
15872;DHT22;8035;51.962;7.162;2023-07-13T08:13:40;18.60;99.90
15872;DHT22;8035;51.962;7.162;2023-07-13T08:16:05;18.60;99.90
15872;DHT22;8035;51.962;7.162;2023-07-13T08:18:31;18.50;99.90
15872;DHT22;8035;51.962;7.162;2023-07-13T08:20:57;18.60;99.90
15872;DHT22;8035;51.962;7.162;2023-07-13T08:23:24;18.80;99.90
15872;DHT22;8035;51.962;7.162;2023-07-13T08:25:51;19.30;99.90
15872;DHT22;8035;51.962;7.162;2023-07-13T08:28:17;19.40;99.90
15872;DHT22;8035;51.962;7.162;2023-07-13T08:30:43;19.60;99.90
15872;DHT22;8035;51.962;7.162;2023-07-13T08:33:08;19.90;99.90
15872;DHT22;8035;51.962;7.162;2023-07-13T08:35:34;19.90;99.90
15872;DHT22;8035;51.962;7.162;2023-07-13T08:37:59;19.70;99.90
15872;DHT22;8035;51.962;7.162;2023-07-13T08:40:27;19.70;99.90
15872;DHT22;8035;51.962;7.162;2023-07-13T08:42:59;19.80;99.90
15872;DHT22;8035;51.962;7.162;2023-07-13T08:45:49;19.70;99.90
15872;DHT22;8035;51.962;7.162;2023-07-13T08:48:36;19.60;99.90
15872;DHT22;8035;51.962;7.162;2023-07-13T08:53:41;19.60;99.90
15872;DHT22;8035;51.962;7.162;2023-07-13T08:56:14;19.50;99.90
15872;DHT22;8035;51.962;7.162;2023-07-13T08:58:41;19.60;99.90
15872;DHT22;8035;51.962;7.162;2023-07-13T09:01:19;19.40;99.90
15872;DHT22;8035;51.962;7.162;2023-07-13T09:04:19;19.30;99.90
15872;DHT22;8035;51.962;7.162;2023-07-13T09:12:07;19.40;99.90
15872;DHT22;8035;51.962;7.162;2023-07-13T09:14:53;19.40;99.90
15872;DHT22;8035;51.962;7.162;2023-07-13T09:17:35;19.50;99.90
15872;DHT22;8035;51.962;7.162;2023-07-13T09:20:26;19.60;99.90
15872;DHT22;8035;51.962;7.162;2023-07-13T09:22:54;19.70;99.90
15872;DHT22;8035;51.962;7.162;2023-07-13T09:25:30;19.80;99.90
15872;DHT22;8035;51.962;7.162;2023-07-13T09:31:03;19.80;99.90
15872;DHT22;8035;51.962;7.162;2023-07-13T09:33:30;19.90;99.90
15872;DHT22;8035;51.962;7.162;2023-07-13T09:35:57;20.30;99.90
15872;DHT22;8035;51.962;7.162;2023-07-13T09:38:25;20.80;99.90
15872;DHT22;8035;51.962;7.162;2023-07-13T09:43:36;20.90;99.90
15872;DHT22;8035;51.962;7.162;2023-07-13T09:46:02;20.80;99.90
15872;DHT22;8035;51.962;7.162;2023-07-13T09:48:35;20.80;99.90
15872;DHT22;8035;51.962;7.162;2023-07-13T09:51:13;20.70;99.90
15872;DHT22;8035;51.962;7.162;2023-07-13T09:53:44;21.10;99.90
15872;DHT22;8035;51.962;7.162;2023-07-13T09:56:24;21.50;99.90
15872;DHT22;8035;51.962;7.162;2023-07-13T09:58:51;21.70;99.90
15872;DHT22;8035;51.962;7.162;2023-07-13T10:01:38;21.70;99.90
15872;DHT22;8035;51.962;7.162;2023-07-13T10:04:13;21.80;99.90
15872;DHT22;8035;51.962;7.162;2023-07-13T10:06:41;21.70;99.90
15872;DHT22;8035;51.962;7.162;2023-07-13T10:09:08;21.80;99.90
15872;DHT22;8035;51.962;7.162;2023-07-13T10:11:35;22.00;99.90
15872;DHT22;8035;51.962;7.162;2023-07-13T10:14:10;22.00;99.90
15872;DHT22;8035;51.962;7.162;2023-07-13T10:16:36;22.40;99.90
15872;DHT22;8035;51.962;7.162;2023-07-13T10:21:43;22.40;99.90
15872;DHT22;8035;51.962;7.162;2023-07-13T10:24:19;22.10;99.90
15872;DHT22;8035;51.962;7.162;2023-07-13T10:26:52;22.10;99.90
15872;DHT22;8035;51.962;7.162;2023-07-13T10:29:18;22.20;99.90
15872;DHT22;8035;51.962;7.162;2023-07-13T10:31:45;22.00;99.90
15872;DHT22;8035;51.962;7.162;2023-07-13T10:34:12;22.10;99.90
15872;DHT22;8035;51.962;7.162;2023-07-13T10:36:46;22.10;99.90
15872;DHT22;8035;51.962;7.162;2023-07-13T10:39:24;22.20;99.90
15872;DHT22;8035;51.962;7.162;2023-07-13T10:41:54;22.10;99.90
15872;DHT22;8035;51.962;7.162;2023-07-13T10:44:26;22.40;99.90
15872;DHT22;8035;51.962;7.162;2023-07-13T10:46:56;22.70;99.90
15872;DHT22;8035;51.962;7.162;2023-07-13T10:49:23;22.70;99.90
15872;DHT22;8035;51.962;7.162;2023-07-13T10:51:49;22.70;99.90
15872;DHT22;8035;51.962;7.162;2023-07-13T10:54:26;22.60;99.90
15872;DHT22;8035;51.962;7.162;2023-07-13T10:57:20;22.90;99.90
15872;DHT22;8035;51.962;7.162;2023-07-13T11:02:29;23.40;99.90
15872;DHT22;8035;51.962;7.162;2023-07-13T11:04:57;23.50;99.90
15872;DHT22;8035;51.962;7.162;2023-07-13T11:07:29;23.10;99.90
15872;DHT22;8035;51.962;7.162;2023-07-13T11:09:57;22.70;99.90
15872;DHT22;8035;51.962;7.162;2023-07-13T11:22:46;22.70;99.90
15872;DHT22;8035;51.962;7.162;2023-07-13T11:25:27;23.30;99.90
15872;DHT22;8035;51.962;7.162;2023-07-13T11:28:21;23.20;99.90
15872;DHT22;8035;51.962;7.162;2023-07-13T11:33:29;23.50;99.90
15872;DHT22;8035;51.962;7.162;2023-07-13T11:36:06;23.50;99.90
15872;DHT22;8035;51.962;7.162;2023-07-13T11:38:40;23.20;99.90
15872;DHT22;8035;51.962;7.162;2023-07-13T11:41:17;22.70;99.90
15872;DHT22;8035;51.962;7.162;2023-07-13T11:43:44;22.40;99.90
15872;DHT22;8035;51.962;7.162;2023-07-13T11:46:21;22.10;99.90
15872;DHT22;8035;51.962;7.162;2023-07-13T11:48:47;21.40;99.90
15872;DHT22;8035;51.962;7.162;2023-07-13T11:51:22;20.80;99.90
15872;DHT22;8035;51.962;7.162;2023-07-13T11:53:51;20.40;99.90
15872;DHT22;8035;51.962;7.162;2023-07-13T11:56:17;20.20;99.90
15872;DHT22;8035;51.962;7.162;2023-07-13T11:58:43;20.20;99.90
15872;DHT22;8035;51.962;7.162;2023-07-13T12:01:22;20.40;99.90
15872;DHT22;8035;51.962;7.162;2023-07-13T12:03:49;20.80;99.90
15872;DHT22;8035;51.962;7.162;2023-07-13T12:06:28;21.50;99.90
15872;DHT22;8035;51.962;7.162;2023-07-13T12:09:03;22.30;99.90
15872;DHT22;8035;51.962;7.162;2023-07-13T12:11:30;22.80;99.90
15872;DHT22;8035;51.962;7.162;2023-07-13T12:13:55;23.10;99.90
15872;DHT22;8035;51.962;7.162;2023-07-13T12:16:29;23.20;99.90
15872;DHT22;8035;51.962;7.162;2023-07-13T12:18:56;22.90;99.90
15872;DHT22;8035;51.962;7.162;2023-07-13T12:21:36;22.40;99.90
15872;DHT22;8035;51.962;7.162;2023-07-13T12:24:03;22.00;99.90
15872;DHT22;8035;51.962;7.162;2023-07-13T12:26:30;21.50;99.90
15872;DHT22;8035;51.962;7.162;2023-07-13T12:28:59;21.40;99.90
15872;DHT22;8035;51.962;7.162;2023-07-13T12:33:58;22.60;99.90
15872;DHT22;8035;51.962;7.162;2023-07-13T12:36:24;23.10;99.90
15872;DHT22;8035;51.962;7.162;2023-07-13T12:38:50;23.40;99.90
15872;DHT22;8035;51.962;7.162;2023-07-13T12:41:16;23.40;99.90
15872;DHT22;8035;51.962;7.162;2023-07-13T12:43:45;23.30;99.90
15872;DHT22;8035;51.962;7.162;2023-07-13T12:46:20;22.90;99.90
15872;DHT22;8035;51.962;7.162;2023-07-13T12:48:54;22.60;99.90
15872;DHT22;8035;51.962;7.162;2023-07-13T12:51:25;22.20;99.90
15872;DHT22;8035;51.962;7.162;2023-07-13T12:53:58;22.20;99.90
15872;DHT22;8035;51.962;7.162;2023-07-13T12:56:33;22.10;99.90
15872;DHT22;8035;51.962;7.162;2023-07-13T12:59:03;21.90;99.90
15872;DHT22;8035;51.962;7.162;2023-07-13T13:01:31;21.60;99.90
15872;DHT22;8035;51.962;7.162;2023-07-13T13:04:01;21.50;99.90
15872;DHT22;8035;51.962;7.162;2023-07-13T13:06:32;21.40;99.90
15872;DHT22;8035;51.962;7.162;2023-07-13T13:08:59;21.20;99.90
15872;DHT22;8035;51.962;7.162;2023-07-13T13:11:26;21.00;99.90
15872;DHT22;8035;51.962;7.162;2023-07-13T13:13:53;20.90;99.90
15872;DHT22;8035;51.962;7.162;2023-07-13T13:18:47;20.60;99.90
15872;DHT22;8035;51.962;7.162;2023-07-13T13:21:13;20.60;99.90
15872;DHT22;8035;51.962;7.162;2023-07-13T13:23:38;20.60;99.90
15872;DHT22;8035;51.962;7.162;2023-07-13T13:26:10;20.50;99.90
15872;DHT22;8035;51.962;7.162;2023-07-13T13:28:36;20.50;99.90
15872;DHT22;8035;51.962;7.162;2023-07-13T13:31:01;20.50;99.90
15872;DHT22;8035;51.962;7.162;2023-07-13T13:33:27;20.40;99.90
15872;DHT22;8035;51.962;7.162;2023-07-13T13:35:52;20.40;99.90
15872;DHT22;8035;51.962;7.162;2023-07-13T13:38:26;20.30;99.90
15872;DHT22;8035;51.962;7.162;2023-07-13T13:40:52;20.10;99.90
15872;DHT22;8035;51.962;7.162;2023-07-13T13:43:21;19.90;99.90
15872;DHT22;8035;51.962;7.162;2023-07-13T13:45:51;19.70;99.90
15872;DHT22;8035;51.962;7.162;2023-07-13T13:48:19;19.60;99.90
15872;DHT22;8035;51.962;7.162;2023-07-13T13:50:47;19.40;99.90
15872;DHT22;8035;51.962;7.162;2023-07-13T13:53:13;19.30;99.90
15872;DHT22;8035;51.962;7.162;2023-07-13T13:55:40;19.20;99.90
15872;DHT22;8035;51.962;7.162;2023-07-13T13:58:08;19.20;99.90
15872;DHT22;8035;51.962;7.162;2023-07-13T14:00:34;19.20;99.90
15872;DHT22;8035;51.962;7.162;2023-07-13T14:02:59;19.20;99.90
15872;DHT22;8035;51.962;7.162;2023-07-13T14:05:26;19.30;99.90
15872;DHT22;8035;51.962;7.162;2023-07-13T14:07:52;19.50;99.90
15872;DHT22;8035;51.962;7.162;2023-07-13T14:10:19;19.80;99.90
15872;DHT22;8035;51.962;7.162;2023-07-13T14:12:51;20.10;99.90
15872;DHT22;8035;51.962;7.162;2023-07-13T14:15:19;20.20;99.90
15872;DHT22;8035;51.962;7.162;2023-07-13T14:17:45;20.30;99.90
15872;DHT22;8035;51.962;7.162;2023-07-13T14:20:12;20.30;99.90
15872;DHT22;8035;51.962;7.162;2023-07-13T14:22:37;20.30;99.90
15872;DHT22;8035;51.962;7.162;2023-07-13T14:25:03;20.40;99.90
15872;DHT22;8035;51.962;7.162;2023-07-13T14:27:29;20.40;99.90
15872;DHT22;8035;51.962;7.162;2023-07-13T14:29:55;20.50;99.90
15872;DHT22;8035;51.962;7.162;2023-07-13T14:32:20;20.70;99.90
15872;DHT22;8035;51.962;7.162;2023-07-13T14:34:46;20.80;99.90
15872;DHT22;8035;51.962;7.162;2023-07-13T14:37:15;20.90;99.90
15872;DHT22;8035;51.962;7.162;2023-07-13T14:39:43;21.10;99.90
15872;DHT22;8035;51.962;7.162;2023-07-13T14:42:09;21.10;99.90
15872;DHT22;8035;51.962;7.162;2023-07-13T14:44:35;21.20;99.90
15872;DHT22;8035;51.962;7.162;2023-07-13T14:47:03;21.10;99.90
15872;DHT22;8035;51.962;7.162;2023-07-13T14:49:37;21.20;99.90
15872;DHT22;8035;51.962;7.162;2023-07-13T14:52:23;21.20;99.90
15872;DHT22;8035;51.962;7.162;2023-07-13T14:54:49;21.00;99.90
15872;DHT22;8035;51.962;7.162;2023-07-13T14:57:19;21.00;99.90
15872;DHT22;8035;51.962;7.162;2023-07-13T14:59:46;21.00;99.90
15872;DHT22;8035;51.962;7.162;2023-07-13T15:02:31;21.00;99.90
15872;DHT22;8035;51.962;7.162;2023-07-13T15:04:58;20.90;99.90
15872;DHT22;8035;51.962;7.162;2023-07-13T15:07:24;20.70;99.90
15872;DHT22;8035;51.962;7.162;2023-07-13T15:09:50;20.50;99.90
15872;DHT22;8035;51.962;7.162;2023-07-13T15:12:19;20.40;99.90
15872;DHT22;8035;51.962;7.162;2023-07-13T15:14:45;20.40;99.90
15872;DHT22;8035;51.962;7.162;2023-07-13T15:17:36;20.90;99.90
15872;DHT22;8035;51.962;7.162;2023-07-13T15:22:43;21.00;99.90
15872;DHT22;8035;51.962;7.162;2023-07-13T15:25:19;21.00;99.90
15872;DHT22;8035;51.962;7.162;2023-07-13T15:27:46;21.00;99.90
15872;DHT22;8035;51.962;7.162;2023-07-13T15:30:13;20.90;99.90
15872;DHT22;8035;51.962;7.162;2023-07-13T15:32:40;20.60;99.90
15872;DHT22;8035;51.962;7.162;2023-07-13T15:35:20;20.50;99.90
15872;DHT22;8035;51.962;7.162;2023-07-13T15:37:46;20.40;99.90
15872;DHT22;8035;51.962;7.162;2023-07-13T15:40:13;20.20;99.90
15872;DHT22;8035;51.962;7.162;2023-07-13T15:42:43;20.20;99.90
15872;DHT22;8035;51.962;7.162;2023-07-13T15:45:21;20.20;99.90
15872;DHT22;8035;51.962;7.162;2023-07-13T15:47:48;20.20;99.90
15872;DHT22;8035;51.962;7.162;2023-07-13T15:50:16;20.20;99.90
15872;DHT22;8035;51.962;7.162;2023-07-13T15:52:44;20.10;99.90
15872;DHT22;8035;51.962;7.162;2023-07-13T15:55:13;19.90;99.90
15872;DHT22;8035;51.962;7.162;2023-07-13T15:57:44;19.80;99.90
15872;DHT22;8035;51.962;7.162;2023-07-13T16:00:24;19.60;99.90
15872;DHT22;8035;51.962;7.162;2023-07-13T16:02:50;19.50;99.90
15872;DHT22;8035;51.962;7.162;2023-07-13T16:05:18;19.30;99.90
15872;DHT22;8035;51.962;7.162;2023-07-13T16:07:45;19.30;99.90
15872;DHT22;8035;51.962;7.162;2023-07-13T16:10:16;19.10;99.90
15872;DHT22;8035;51.962;7.162;2023-07-13T16:12:42;19.00;99.90
15872;DHT22;8035;51.962;7.162;2023-07-13T16:15:16;18.70;99.90
15872;DHT22;8035;51.962;7.162;2023-07-13T16:17:44;18.40;99.90
15872;DHT22;8035;51.962;7.162;2023-07-13T16:20:10;18.10;99.90
15872;DHT22;8035;51.962;7.162;2023-07-13T16:22:37;17.70;99.90
15872;DHT22;8035;51.962;7.162;2023-07-13T16:25:15;17.30;99.90
15872;DHT22;8035;51.962;7.162;2023-07-13T16:27:44;17.00;99.90
15872;DHT22;8035;51.962;7.162;2023-07-13T16:30:12;16.80;99.90
15872;DHT22;8035;51.962;7.162;2023-07-13T16:32:38;16.70;99.90